Terminal Aerodrome Forecast
Issued by NWS Burlington, VT

Home | Current Version | Previous Version | Text Only | Print | Product List | Glossary On
Versions: 1 2 3 4 5 6 7 8 9 10 11 12 13 14 15
000
FTUS41 KBTV 292028 AAA
TAFBTV
TAF AMD
KBTV 292028Z 2920/3018 30012G22KT P6SM SCT080
     FM300300 34009G15KT P6SM FEW250
     FM300900 01005KT P6SM FEW150
     FM301700 34004KT P6SM VCSH BKN070=

USA.gov is the U.S. government's official web portal to all federal, state and local government web resources and services.